sensor_id;sensor_type;location;lat;lon;timestamp;temperature;humidity
15113;DHT22;7657;50.140;7.076;2022-09-03T00:02:35;19.70;83.60
15113;DHT22;7657;50.140;7.076;2022-09-03T00:05:07;19.60;84.50
15113;DHT22;7657;50.140;7.076;2022-09-03T00:07:41;19.70;85.00
15113;DHT22;7657;50.140;7.076;2022-09-03T00:10:15;19.50;85.50
15113;DHT22;7657;50.140;7.076;2022-09-03T00:12:46;19.50;86.10
15113;DHT22;7657;50.140;7.076;2022-09-03T00:15:17;19.50;86.70
15113;DHT22;7657;50.140;7.076;2022-09-03T00:17:48;19.40;87.40
15113;DHT22;7657;50.140;7.076;2022-09-03T00:20:20;19.50;88.10
15113;DHT22;7657;50.140;7.076;2022-09-03T00:22:50;19.40;88.70
15113;DHT22;7657;50.140;7.076;2022-09-03T00:25:21;19.40;89.10
15113;DHT22;7657;50.140;7.076;2022-09-03T00:27:53;19.30;89.90
15113;DHT22;7657;50.140;7.076;2022-09-03T00:30:21;19.30;90.20
15113;DHT22;7657;50.140;7.076;2022-09-03T00:32:53;19.30;90.50
15113;DHT22;7657;50.140;7.076;2022-09-03T00:35:25;19.20;90.90
15113;DHT22;7657;50.140;7.076;2022-09-03T00:37:53;19.20;91.30
15113;DHT22;7657;50.140;7.076;2022-09-03T00:40:49;19.10;91.60
15113;DHT22;7657;50.140;7.076;2022-09-03T00:43:27;19.10;91.90
15113;DHT22;7657;50.140;7.076;2022-09-03T00:46:02;19.10;92.20
15113;DHT22;7657;50.140;7.076;2022-09-03T00:48:43;19.00;92.50
15113;DHT22;7657;50.140;7.076;2022-09-03T00:51:22;19.10;92.80
15113;DHT22;7657;50.140;7.076;2022-09-03T00:53:59;19.00;93.10
15113;DHT22;7657;50.140;7.076;2022-09-03T00:56:38;19.00;93.40
15113;DHT22;7657;50.140;7.076;2022-09-03T00:59:20;19.00;93.60
15113;DHT22;7657;50.140;7.076;2022-09-03T01:02:02;19.00;93.90
15113;DHT22;7657;50.140;7.076;2022-09-03T01:04:42;19.00;94.00
15113;DHT22;7657;50.140;7.076;2022-09-03T01:07:22;19.10;94.20
15113;DHT22;7657;50.140;7.076;2022-09-03T01:09:58;19.00;94.60
15113;DHT22;7657;50.140;7.076;2022-09-03T01:12:42;19.00;95.00
15113;DHT22;7657;50.140;7.076;2022-09-03T01:15:15;18.90;95.10
15113;DHT22;7657;50.140;7.076;2022-09-03T01:17:59;18.90;95.60
15113;DHT22;7657;50.140;7.076;2022-09-03T01:20:42;18.90;95.80
15113;DHT22;7657;50.140;7.076;2022-09-03T01:26:29;18.80;96.60
15113;DHT22;7657;50.140;7.076;2022-09-03T01:29:09;18.80;96.70
15113;DHT22;7657;50.140;7.076;2022-09-03T01:31:46;18.70;97.20
15113;DHT22;7657;50.140;7.076;2022-09-03T01:34:22;18.70;97.50
15113;DHT22;7657;50.140;7.076;2022-09-03T01:37:04;18.70;98.00
15113;DHT22;7657;50.140;7.076;2022-09-03T01:39:40;18.80;98.10
15113;DHT22;7657;50.140;7.076;2022-09-03T01:42:20;18.80;98.00
15113;DHT22;7657;50.140;7.076;2022-09-03T01:48:02;18.90;98.30
15113;DHT22;7657;50.140;7.076;2022-09-03T01:50:40;19.00;98.10
15113;DHT22;7657;50.140;7.076;2022-09-03T01:53:16;19.00;98.10
15113;DHT22;7657;50.140;7.076;2022-09-03T01:55:57;19.00;98.30
15113;DHT22;7657;50.140;7.076;2022-09-03T01:58:32;19.00;98.30
15113;DHT22;7657;50.140;7.076;2022-09-03T02:01:06;19.00;98.30
15113;DHT22;7657;50.140;7.076;2022-09-03T02:03:40;18.90;98.50
15113;DHT22;7657;50.140;7.076;2022-09-03T02:06:10;18.90;98.70
15113;DHT22;7657;50.140;7.076;2022-09-03T02:08:37;18.90;98.70
15113;DHT22;7657;50.140;7.076;2022-09-03T02:11:06;18.90;98.80
15113;DHT22;7657;50.140;7.076;2022-09-03T02:13:36;18.90;99.20
15113;DHT22;7657;50.140;7.076;2022-09-03T02:16:10;18.80;99.30
15113;DHT22;7657;50.140;7.076;2022-09-03T02:18:42;18.80;99.60
15113;DHT22;7657;50.140;7.076;2022-09-03T02:21:12;18.80;99.70
15113;DHT22;7657;50.140;7.076;2022-09-03T02:23:40;18.80;99.80
15113;DHT22;7657;50.140;7.076;2022-09-03T02:26:09;18.80;99.90
15113;DHT22;7657;50.140;7.076;2022-09-03T02:28:37;18.70;99.90
15113;DHT22;7657;50.140;7.076;2022-09-03T02:31:04;18.70;99.90
15113;DHT22;7657;50.140;7.076;2022-09-03T02:33:35;18.70;99.90
15113;DHT22;7657;50.140;7.076;2022-09-03T02:36:07;18.70;99.90
15113;DHT22;7657;50.140;7.076;2022-09-03T02:38:34;18.70;99.90
15113;DHT22;7657;50.140;7.076;2022-09-03T02:41:01;18.70;99.90
15113;DHT22;7657;50.140;7.076;2022-09-03T02:43:33;18.70;99.90
15113;DHT22;7657;50.140;7.076;2022-09-03T02:46:04;18.80;99.90
15113;DHT22;7657;50.140;7.076;2022-09-03T02:48:32;18.80;99.90
15113;DHT22;7657;50.140;7.076;2022-09-03T02:51:00;18.80;99.90
15113;DHT22;7657;50.140;7.076;2022-09-03T02:53:28;18.80;99.90
15113;DHT22;7657;50.140;7.076;2022-09-03T02:55:59;18.80;99.90
15113;DHT22;7657;50.140;7.076;2022-09-03T02:58:27;18.80;99.90
15113;DHT22;7657;50.140;7.076;2022-09-03T03:00:54;18.80;99.90
15113;DHT22;7657;50.140;7.076;2022-09-03T03:03:21;18.70;99.90
15113;DHT22;7657;50.140;7.076;2022-09-03T03:05:49;18.70;99.90
15113;DHT22;7657;50.140;7.076;2022-09-03T03:08:18;18.70;99.90
15113;DHT22;7657;50.140;7.076;2022-09-03T03:10:51;18.70;99.90
15113;DHT22;7657;50.140;7.076;2022-09-03T03:13:18;18.60;99.90
15113;DHT22;7657;50.140;7.076;2022-09-03T03:15:45;18.60;99.90
15113;DHT22;7657;50.140;7.076;2022-09-03T03:18:13;18.60;99.90
15113;DHT22;7657;50.140;7.076;2022-09-03T03:20:42;18.60;99.90
15113;DHT22;7657;50.140;7.076;2022-09-03T03:23:09;18.70;99.90
15113;DHT22;7657;50.140;7.076;2022-09-03T03:25:38;18.60;99.90
15113;DHT22;7657;50.140;7.076;2022-09-03T03:28:07;18.60;99.90
15113;DHT22;7657;50.140;7.076;2022-09-03T03:30:36;18.70;99.90
15113;DHT22;7657;50.140;7.076;2022-09-03T03:33:04;18.70;99.90
15113;DHT22;7657;50.140;7.076;2022-09-03T03:35:31;18.60;99.90
15113;DHT22;7657;50.140;7.076;2022-09-03T03:37:59;18.60;99.90
15113;DHT22;7657;50.140;7.076;2022-09-03T03:40:26;18.60;99.90
15113;DHT22;7657;50.140;7.076;2022-09-03T03:42:53;18.60;99.90
15113;DHT22;7657;50.140;7.076;2022-09-03T03:45:21;18.60;99.90
15113;DHT22;7657;50.140;7.076;2022-09-03T03:47:48;18.70;99.90
15113;DHT22;7657;50.140;7.076;2022-09-03T03:50:15;18.70;99.90
15113;DHT22;7657;50.140;7.076;2022-09-03T03:52:42;18.70;99.90
15113;DHT22;7657;50.140;7.076;2022-09-03T03:55:09;18.70;99.90
15113;DHT22;7657;50.140;7.076;2022-09-03T03:57:36;18.70;99.90
15113;DHT22;7657;50.140;7.076;2022-09-03T04:00:04;18.70;99.90
15113;DHT22;7657;50.140;7.076;2022-09-03T04:02:32;18.80;99.90
15113;DHT22;7657;50.140;7.076;2022-09-03T04:04:59;18.70;99.90
15113;DHT22;7657;50.140;7.076;2022-09-03T04:07:26;18.70;99.90
15113;DHT22;7657;50.140;7.076;2022-09-03T04:09:53;18.70;99.90
15113;DHT22;7657;50.140;7.076;2022-09-03T04:12:20;18.70;99.90
15113;DHT22;7657;50.140;7.076;2022-09-03T04:14:47;18.70;99.90
15113;DHT22;7657;50.140;7.076;2022-09-03T04:17:14;18.70;99.90
15113;DHT22;7657;50.140;7.076;2022-09-03T04:19:42;18.60;99.90
15113;DHT22;7657;50.140;7.076;2022-09-03T04:22:12;18.60;99.90
15113;DHT22;7657;50.140;7.076;2022-09-03T04:24:40;18.60;99.90
15113;DHT22;7657;50.140;7.076;2022-09-03T04:27:07;18.60;99.90
15113;DHT22;7657;50.140;7.076;2022-09-03T04:29:34;18.50;99.90
15113;DHT22;7657;50.140;7.076;2022-09-03T04:32:01;18.50;99.90
15113;DHT22;7657;50.140;7.076;2022-09-03T04:34:47;18.60;99.90
15113;DHT22;7657;50.140;7.076;2022-09-03T04:37:14;18.60;99.90
15113;DHT22;7657;50.140;7.076;2022-09-03T04:39:44;18.60;99.90
15113;DHT22;7657;50.140;7.076;2022-09-03T04:42:11;18.50;99.90
15113;DHT22;7657;50.140;7.076;2022-09-03T04:44:38;18.50;99.90
15113;DHT22;7657;50.140;7.076;2022-09-03T04:47:05;18.40;99.90
15113;DHT22;7657;50.140;7.076;2022-09-03T04:49:32;18.40;99.90
15113;DHT22;7657;50.140;7.076;2022-09-03T04:52:02;18.30;99.90
15113;DHT22;7657;50.140;7.076;2022-09-03T04:54:29;18.30;99.90
15113;DHT22;7657;50.140;7.076;2022-09-03T04:56:56;18.30;99.90
15113;DHT22;7657;50.140;7.076;2022-09-03T04:59:22;18.30;99.90
15113;DHT22;7657;50.140;7.076;2022-09-03T05:01:49;18.30;99.90
15113;DHT22;7657;50.140;7.076;2022-09-03T05:04:17;18.30;99.90
15113;DHT22;7657;50.140;7.076;2022-09-03T05:06:44;18.30;99.90
15113;DHT22;7657;50.140;7.076;2022-09-03T05:09:13;18.30;99.90
15113;DHT22;7657;50.140;7.076;2022-09-03T05:11:40;18.30;99.90
15113;DHT22;7657;50.140;7.076;2022-09-03T05:14:07;18.30;99.90
15113;DHT22;7657;50.140;7.076;2022-09-03T05:16:36;18.30;99.90
15113;DHT22;7657;50.140;7.076;2022-09-03T05:19:03;18.30;99.90
15113;DHT22;7657;50.140;7.076;2022-09-03T05:21:33;18.30;99.90
15113;DHT22;7657;50.140;7.076;2022-09-03T05:24:02;18.30;99.90
15113;DHT22;7657;50.140;7.076;2022-09-03T05:26:35;18.30;99.90
15113;DHT22;7657;50.140;7.076;2022-09-03T05:29:04;18.30;99.90
15113;DHT22;7657;50.140;7.076;2022-09-03T05:31:32;18.30;99.90
15113;DHT22;7657;50.140;7.076;2022-09-03T05:34:01;18.30;99.90
15113;DHT22;7657;50.140;7.076;2022-09-03T05:36:30;18.40;99.90
15113;DHT22;7657;50.140;7.076;2022-09-03T05:38:58;18.40;99.90
15113;DHT22;7657;50.140;7.076;2022-09-03T05:41:26;18.40;99.90
15113;DHT22;7657;50.140;7.076;2022-09-03T05:43:55;18.40;99.90
15113;DHT22;7657;50.140;7.076;2022-09-03T05:46:24;18.50;99.90
15113;DHT22;7657;50.140;7.076;2022-09-03T05:48:56;18.50;99.90
15113;DHT22;7657;50.140;7.076;2022-09-03T05:51:24;18.50;99.90
15113;DHT22;7657;50.140;7.076;2022-09-03T05:53:51;18.50;99.90
15113;DHT22;7657;50.140;7.076;2022-09-03T05:56:21;18.50;99.90
15113;DHT22;7657;50.140;7.076;2022-09-03T05:58:50;18.60;99.90
15113;DHT22;7657;50.140;7.076;2022-09-03T06:01:20;18.50;99.90
15113;DHT22;7657;50.140;7.076;2022-09-03T06:03:52;18.40;99.90
15113;DHT22;7657;50.140;7.076;2022-09-03T06:06:20;18.40;99.90
15113;DHT22;7657;50.140;7.076;2022-09-03T06:08:50;18.40;99.90
15113;DHT22;7657;50.140;7.076;2022-09-03T06:11:17;18.50;99.90
15113;DHT22;7657;50.140;7.076;2022-09-03T06:13:44;18.50;99.90
15113;DHT22;7657;50.140;7.076;2022-09-03T06:16:12;18.40;99.90
15113;DHT22;7657;50.140;7.076;2022-09-03T06:18:40;18.50;99.90
15113;DHT22;7657;50.140;7.076;2022-09-03T06:21:07;18.60;99.90
15113;DHT22;7657;50.140;7.076;2022-09-03T06:23:35;18.60;99.90
15113;DHT22;7657;50.140;7.076;2022-09-03T06:26:03;18.70;99.90
15113;DHT22;7657;50.140;7.076;2022-09-03T06:28:30;18.70;99.90
15113;DHT22;7657;50.140;7.076;2022-09-03T06:30:59;18.70;99.90
15113;DHT22;7657;50.140;7.076;2022-09-03T06:33:26;18.70;99.90
15113;DHT22;7657;50.140;7.076;2022-09-03T06:35:57;18.70;99.90
15113;DHT22;7657;50.140;7.076;2022-09-03T06:38:25;18.70;99.90
15113;DHT22;7657;50.140;7.076;2022-09-03T06:40:53;18.60;99.90
15113;DHT22;7657;50.140;7.076;2022-09-03T06:43:20;18.60;99.90
15113;DHT22;7657;50.140;7.076;2022-09-03T06:45:55;18.70;99.90
15113;DHT22;7657;50.140;7.076;2022-09-03T06:48:22;18.70;99.90
15113;DHT22;7657;50.140;7.076;2022-09-03T06:50:54;18.80;99.90
15113;DHT22;7657;50.140;7.076;2022-09-03T06:53:24;18.80;99.90
15113;DHT22;7657;50.140;7.076;2022-09-03T06:55:55;18.80;99.90
15113;DHT22;7657;50.140;7.076;2022-09-03T06:58:23;18.80;99.90
15113;DHT22;7657;50.140;7.076;2022-09-03T07:00:50;18.80;99.90
15113;DHT22;7657;50.140;7.076;2022-09-03T07:03:19;18.80;99.90
15113;DHT22;7657;50.140;7.076;2022-09-03T07:05:46;18.80;99.90
15113;DHT22;7657;50.140;7.076;2022-09-03T07:08:13;18.80;99.90
15113;DHT22;7657;50.140;7.076;2022-09-03T07:10:45;18.90;99.90
15113;DHT22;7657;50.140;7.076;2022-09-03T07:13:12;18.90;99.90
15113;DHT22;7657;50.140;7.076;2022-09-03T07:15:39;18.90;99.90
15113;DHT22;7657;50.140;7.076;2022-09-03T07:18:07;18.90;99.90
15113;DHT22;7657;50.140;7.076;2022-09-03T07:20:33;18.90;99.90
15113;DHT22;7657;50.140;7.076;2022-09-03T07:23:01;18.90;99.90
15113;DHT22;7657;50.140;7.076;2022-09-03T07:25:27;19.00;99.90
15113;DHT22;7657;50.140;7.076;2022-09-03T07:27:56;19.10;99.90
15113;DHT22;7657;50.140;7.076;2022-09-03T07:30:24;19.20;99.90
15113;DHT22;7657;50.140;7.076;2022-09-03T07:32:51;19.20;99.90
15113;DHT22;7657;50.140;7.076;2022-09-03T07:35:19;19.20;99.90
15113;DHT22;7657;50.140;7.076;2022-09-03T07:37:50;19.30;99.90
15113;DHT22;7657;50.140;7.076;2022-09-03T07:40:17;19.20;99.90
15113;DHT22;7657;50.140;7.076;2022-09-03T07:42:44;19.20;99.90
15113;DHT22;7657;50.140;7.076;2022-09-03T07:45:14;19.20;99.90
15113;DHT22;7657;50.140;7.076;2022-09-03T07:47:47;19.30;99.90
15113;DHT22;7657;50.140;7.076;2022-09-03T07:50:15;19.40;99.90
15113;DHT22;7657;50.140;7.076;2022-09-03T07:52:42;19.50;99.90
15113;DHT22;7657;50.140;7.076;2022-09-03T07:55:09;19.50;99.90
15113;DHT22;7657;50.140;7.076;2022-09-03T07:57:36;19.60;99.90
15113;DHT22;7657;50.140;7.076;2022-09-03T08:00:04;19.60;99.90
15113;DHT22;7657;50.140;7.076;2022-09-03T08:02:33;19.70;99.90
15113;DHT22;7657;50.140;7.076;2022-09-03T08:05:00;19.60;99.90
15113;DHT22;7657;50.140;7.076;2022-09-03T08:07:28;19.70;99.90
15113;DHT22;7657;50.140;7.076;2022-09-03T08:09:55;19.70;99.90
15113;DHT22;7657;50.140;7.076;2022-09-03T08:12:22;19.80;99.90
15113;DHT22;7657;50.140;7.076;2022-09-03T08:14:49;19.80;99.90
15113;DHT22;7657;50.140;7.076;2022-09-03T08:17:16;19.90;99.90
15113;DHT22;7657;50.140;7.076;2022-09-03T08:19:44;19.90;99.90
15113;DHT22;7657;50.140;7.076;2022-09-03T08:22:12;20.00;99.90
15113;DHT22;7657;50.140;7.076;2022-09-03T08:24:39;19.90;99.90
15113;DHT22;7657;50.140;7.076;2022-09-03T08:27:07;20.00;99.90
15113;DHT22;7657;50.140;7.076;2022-09-03T08:29:34;20.00;99.90
15113;DHT22;7657;50.140;7.076;2022-09-03T08:32:03;20.00;99.90
15113;DHT22;7657;50.140;7.076;2022-09-03T08:34:30;20.10;99.90
15113;DHT22;7657;50.140;7.076;2022-09-03T08:36:58;20.00;99.90
15113;DHT22;7657;50.140;7.076;2022-09-03T08:39:26;20.10;99.90
15113;DHT22;7657;50.140;7.076;2022-09-03T08:42:06;20.10;99.90
15113;DHT22;7657;50.140;7.076;2022-09-03T08:44:42;20.10;99.90
15113;DHT22;7657;50.140;7.076;2022-09-03T08:47:16;20.10;99.90
15113;DHT22;7657;50.140;7.076;2022-09-03T08:49:50;20.20;99.90
15113;DHT22;7657;50.140;7.076;2022-09-03T08:52:32;20.20;99.90
15113;DHT22;7657;50.140;7.076;2022-09-03T08:55:16;20.30;99.90
15113;DHT22;7657;50.140;7.076;2022-09-03T08:57:46;20.40;99.90
15113;DHT22;7657;50.140;7.076;2022-09-03T09:00:15;20.40;99.90
15113;DHT22;7657;50.140;7.076;2022-09-03T09:02:51;20.30;99.90
15113;DHT22;7657;50.140;7.076;2022-09-03T09:05:23;20.40;99.90
15113;DHT22;7657;50.140;7.076;2022-09-03T09:08:00;20.40;99.90
15113;DHT22;7657;50.140;7.076;2022-09-03T09:10:36;20.60;99.90
15113;DHT22;7657;50.140;7.076;2022-09-03T09:13:12;20.60;99.90
15113;DHT22;7657;50.140;7.076;2022-09-03T09:15:50;20.70;99.90
15113;DHT22;7657;50.140;7.076;2022-09-03T09:18:32;20.60;99.90
15113;DHT22;7657;50.140;7.076;2022-09-03T09:21:10;20.70;99.90
15113;DHT22;7657;50.140;7.076;2022-09-03T09:23:45;20.80;99.90
15113;DHT22;7657;50.140;7.076;2022-09-03T09:26:15;20.80;99.90
15113;DHT22;7657;50.140;7.076;2022-09-03T09:28:44;20.90;99.90
15113;DHT22;7657;50.140;7.076;2022-09-03T09:31:14;20.90;99.90
15113;DHT22;7657;50.140;7.076;2022-09-03T09:33:43;21.00;99.90
15113;DHT22;7657;50.140;7.076;2022-09-03T09:36:12;21.00;99.90
15113;DHT22;7657;50.140;7.076;2022-09-03T09:38:43;21.10;99.90
15113;DHT22;7657;50.140;7.076;2022-09-03T09:41:12;21.10;99.90
15113;DHT22;7657;50.140;7.076;2022-09-03T09:43:40;21.20;99.90
15113;DHT22;7657;50.140;7.076;2022-09-03T09:46:11;21.20;99.90
15113;DHT22;7657;50.140;7.076;2022-09-03T09:48:46;21.30;99.90
15113;DHT22;7657;50.140;7.076;2022-09-03T09:51:19;21.30;99.90
15113;DHT22;7657;50.140;7.076;2022-09-03T09:53:58;21.40;99.90
15113;DHT22;7657;50.140;7.076;2022-09-03T09:56:26;21.50;99.90
15113;DHT22;7657;50.140;7.076;2022-09-03T09:59:02;21.50;99.90
15113;DHT22;7657;50.140;7.076;2022-09-03T10:01:29;21.50;99.90
15113;DHT22;7657;50.140;7.076;2022-09-03T10:03:57;21.40;99.90
15113;DHT22;7657;50.140;7.076;2022-09-03T10:06:26;21.40;99.90
15113;DHT22;7657;50.140;7.076;2022-09-03T10:09:14;21.60;99.90
15113;DHT22;7657;50.140;7.076;2022-09-03T10:11:43;21.70;99.90
15113;DHT22;7657;50.140;7.076;2022-09-03T10:14:17;21.70;99.90
15113;DHT22;7657;50.140;7.076;2022-09-03T10:16:49;21.80;99.90
15113;DHT22;7657;50.140;7.076;2022-09-03T10:19:24;21.90;99.90
15113;DHT22;7657;50.140;7.076;2022-09-03T10:21:57;22.00;99.90
15113;DHT22;7657;50.140;7.076;2022-09-03T10:24:48;22.00;99.90
15113;DHT22;7657;50.140;7.076;2022-09-03T10:27:18;22.10;99.90
15113;DHT22;7657;50.140;7.076;2022-09-03T10:29:46;22.10;99.90
15113;DHT22;7657;50.140;7.076;2022-09-03T10:32:29;22.20;99.90
15113;DHT22;7657;50.140;7.076;2022-09-03T10:35:04;22.20;99.90
15113;DHT22;7657;50.140;7.076;2022-09-03T10:37:39;22.00;99.90
15113;DHT22;7657;50.140;7.076;2022-09-03T10:40:24;22.10;99.90
15113;DHT22;7657;50.140;7.076;2022-09-03T10:43:16;21.90;99.90
15113;DHT22;7657;50.140;7.076;2022-09-03T10:45:51;22.10;99.90
15113;DHT22;7657;50.140;7.076;2022-09-03T10:48:44;22.10;99.90
15113;DHT22;7657;50.140;7.076;2022-09-03T10:51:18;22.10;99.90
15113;DHT22;7657;50.140;7.076;2022-09-03T10:54:00;22.30;99.90
15113;DHT22;7657;50.140;7.076;2022-09-03T10:56:36;22.30;99.90
15113;DHT22;7657;50.140;7.076;2022-09-03T10:59:15;22.40;99.90
15113;DHT22;7657;50.140;7.076;2022-09-03T11:01:51;22.50;99.90
15113;DHT22;7657;50.140;7.076;2022-09-03T11:04:27;22.60;99.90
15113;DHT22;7657;50.140;7.076;2022-09-03T11:07:00;22.70;99.90
15113;DHT22;7657;50.140;7.076;2022-09-03T11:09:35;22.80;99.90
15113;DHT22;7657;50.140;7.076;2022-09-03T11:12:08;22.80;99.90
15113;DHT22;7657;50.140;7.076;2022-09-03T11:14:39;22.90;99.90
15113;DHT22;7657;50.140;7.076;2022-09-03T11:17:14;23.00;99.90
15113;DHT22;7657;50.140;7.076;2022-09-03T11:19:47;23.00;99.90
15113;DHT22;7657;50.140;7.076;2022-09-03T11:22:16;23.10;99.90
15113;DHT22;7657;50.140;7.076;2022-09-03T11:24:48;23.10;99.90
15113;DHT22;7657;50.140;7.076;2022-09-03T11:27:31;23.20;99.90
15113;DHT22;7657;50.140;7.076;2022-09-03T11:30:02;23.30;99.90
15113;DHT22;7657;50.140;7.076;2022-09-03T11:32:43;23.30;99.90
15113;DHT22;7657;50.140;7.076;2022-09-03T11:35:14;23.30;99.90
15113;DHT22;7657;50.140;7.076;2022-09-03T11:37:49;23.40;99.90
15113;DHT22;7657;50.140;7.076;2022-09-03T11:40:18;23.40;99.90
15113;DHT22;7657;50.140;7.076;2022-09-03T11:42:47;23.40;99.90
15113;DHT22;7657;50.140;7.076;2022-09-03T11:45:32;23.50;99.90
15113;DHT22;7657;50.140;7.076;2022-09-03T11:48:00;23.50;99.90
15113;DHT22;7657;50.140;7.076;2022-09-03T11:50:28;23.60;99.90
15113;DHT22;7657;50.140;7.076;2022-09-03T11:53:08;23.50;99.90
15113;DHT22;7657;50.140;7.076;2022-09-03T11:55:51;23.50;99.90
15113;DHT22;7657;50.140;7.076;2022-09-03T11:58:24;23.50;99.90
15113;DHT22;7657;50.140;7.076;2022-09-03T12:00:52;23.50;99.90
15113;DHT22;7657;50.140;7.076;2022-09-03T12:03:24;23.40;99.90
15113;DHT22;7657;50.140;7.076;2022-09-03T12:06:09;23.40;99.90
15113;DHT22;7657;50.140;7.076;2022-09-03T12:09:01;23.50;99.90
15113;DHT22;7657;50.140;7.076;2022-09-03T12:11:44;23.50;99.90
15113;DHT22;7657;50.140;7.076;2022-09-03T12:14:21;23.60;99.90
15113;DHT22;7657;50.140;7.076;2022-09-03T12:16:59;23.60;99.90
15113;DHT22;7657;50.140;7.076;2022-09-03T12:19:36;23.70;99.90
15113;DHT22;7657;50.140;7.076;2022-09-03T12:22:04;23.60;99.90
15113;DHT22;7657;50.140;7.076;2022-09-03T12:24:31;23.70;99.90
15113;DHT22;7657;50.140;7.076;2022-09-03T12:27:02;23.70;99.90
15113;DHT22;7657;50.140;7.076;2022-09-03T12:29:31;23.70;99.90
15113;DHT22;7657;50.140;7.076;2022-09-03T12:32:07;23.70;99.90
15113;DHT22;7657;50.140;7.076;2022-09-03T12:34:34;23.70;99.90
15113;DHT22;7657;50.140;7.076;2022-09-03T12:37:01;23.80;99.90
15113;DHT22;7657;50.140;7.076;2022-09-03T12:39:29;23.80;99.90
15113;DHT22;7657;50.140;7.076;2022-09-03T12:42:00;23.80;99.90
15113;DHT22;7657;50.140;7.076;2022-09-03T12:44:36;23.90;99.90
15113;DHT22;7657;50.140;7.076;2022-09-03T12:47:09;23.90;99.90
15113;DHT22;7657;50.140;7.076;2022-09-03T12:49:38;24.00;99.90
15113;DHT22;7657;50.140;7.076;2022-09-03T12:52:12;23.90;99.90
15113;DHT22;7657;50.140;7.076;2022-09-03T12:54:47;24.00;99.90
15113;DHT22;7657;50.140;7.076;2022-09-03T12:57:19;24.00;99.90
15113;DHT22;7657;50.140;7.076;2022-09-03T12:59:51;24.00;99.90
15113;DHT22;7657;50.140;7.076;2022-09-03T13:02:23;24.00;99.90
15113;DHT22;7657;50.140;7.076;2022-09-03T13:04:52;24.00;99.90
15113;DHT22;7657;50.140;7.076;2022-09-03T13:07:24;23.90;99.90
15113;DHT22;7657;50.140;7.076;2022-09-03T13:09:59;23.90;99.90
15113;DHT22;7657;50.140;7.076;2022-09-03T13:12:31;23.80;99.90
15113;DHT22;7657;50.140;7.076;2022-09-03T13:15:07;23.80;99.90
15113;DHT22;7657;50.140;7.076;2022-09-03T13:17:56;23.80;99.90
15113;DHT22;7657;50.140;7.076;2022-09-03T13:20:33;23.70;99.90
15113;DHT22;7657;50.140;7.076;2022-09-03T13:23:34;23.70;99.90
15113;DHT22;7657;50.140;7.076;2022-09-03T13:26:10;23.70;99.90
15113;DHT22;7657;50.140;7.076;2022-09-03T13:28:52;23.70;99.90
15113;DHT22;7657;50.140;7.076;2022-09-03T13:31:29;23.60;99.90
15113;DHT22;7657;50.140;7.076;2022-09-03T13:34:02;23.50;99.90
15113;DHT22;7657;50.140;7.076;2022-09-03T13:36:36;23.50;99.90
15113;DHT22;7657;50.140;7.076;2022-09-03T13:39:15;23.50;99.90
15113;DHT22;7657;50.140;7.076;2022-09-03T13:41:47;23.40;99.90
15113;DHT22;7657;50.140;7.076;2022-09-03T13:44:23;23.30;99.90
15113;DHT22;7657;50.140;7.076;2022-09-03T13:47:00;23.10;99.90
15113;DHT22;7657;50.140;7.076;2022-09-03T13:49:36;22.80;99.90
15113;DHT22;7657;50.140;7.076;2022-09-03T13:52:30;22.60;99.90
15113;DHT22;7657;50.140;7.076;2022-09-03T13:55:05;22.50;99.90
15113;DHT22;7657;50.140;7.076;2022-09-03T13:57:37;22.60;99.90
15113;DHT22;7657;50.140;7.076;2022-09-03T14:00:09;22.60;99.90
15113;DHT22;7657;50.140;7.076;2022-09-03T14:02:47;22.30;99.90
15113;DHT22;7657;50.140;7.076;2022-09-03T14:05:22;22.10;99.90
15113;DHT22;7657;50.140;7.076;2022-09-03T14:08:07;22.10;99.90
15113;DHT22;7657;50.140;7.076;2022-09-03T14:10:50;22.20;99.90
15113;DHT22;7657;50.140;7.076;2022-09-03T14:13:23;22.30;99.90
15113;DHT22;7657;50.140;7.076;2022-09-03T14:15:59;22.20;99.90
15113;DHT22;7657;50.140;7.076;2022-09-03T14:18:39;22.40;99.90
15113;DHT22;7657;50.140;7.076;2022-09-03T14:21:12;22.40;99.90
15113;DHT22;7657;50.140;7.076;2022-09-03T14:23:43;22.40;99.90
15113;DHT22;7657;50.140;7.076;2022-09-03T14:26:17;22.40;99.90
15113;DHT22;7657;50.140;7.076;2022-09-03T14:28:47;22.40;99.90
15113;DHT22;7657;50.140;7.076;2022-09-03T14:31:22;22.40;99.90
15113;DHT22;7657;50.140;7.076;2022-09-03T14:33:59;22.40;99.90
15113;DHT22;7657;50.140;7.076;2022-09-03T14:36:31;22.40;99.90
15113;DHT22;7657;50.140;7.076;2022-09-03T14:39:22;22.30;99.90
15113;DHT22;7657;50.140;7.076;2022-09-03T14:42:20;22.30;99.90
15113;DHT22;7657;50.140;7.076;2022-09-03T14:45:11;22.30;99.90
15113;DHT22;7657;50.140;7.076;2022-09-03T14:47:48;22.30;99.90
15113;DHT22;7657;50.140;7.076;2022-09-03T14:50:33;22.30;99.90
15113;DHT22;7657;50.140;7.076;2022-09-03T14:53:19;22.20;99.90
15113;DHT22;7657;50.140;7.076;2022-09-03T14:56:04;22.10;99.90
15113;DHT22;7657;50.140;7.076;2022-09-03T14:58:46;22.10;99.90
15113;DHT22;7657;50.140;7.076;2022-09-03T15:01:25;22.10;99.90
15113;DHT22;7657;50.140;7.076;2022-09-03T15:04:25;22.10;99.90
15113;DHT22;7657;50.140;7.076;2022-09-03T15:07:07;22.10;99.90
15113;DHT22;7657;50.140;7.076;2022-09-03T15:09:41;22.10;99.90
15113;DHT22;7657;50.140;7.076;2022-09-03T15:12:17;22.10;99.90
15113;DHT22;7657;50.140;7.076;2022-09-03T15:14:49;22.10;99.90
15113;DHT22;7657;50.140;7.076;2022-09-03T15:17:39;22.10;99.90
15113;DHT22;7657;50.140;7.076;2022-09-03T15:20:20;22.10;99.90
15113;DHT22;7657;50.140;7.076;2022-09-03T15:23:10;22.10;99.90
15113;DHT22;7657;50.140;7.076;2022-09-03T15:25:55;22.10;99.90
15113;DHT22;7657;50.140;7.076;2022-09-03T15:28:42;22.20;99.90
15113;DHT22;7657;50.140;7.076;2022-09-03T15:31:15;22.20;99.90
15113;DHT22;7657;50.140;7.076;2022-09-03T15:33:48;22.20;99.90
15113;DHT22;7657;50.140;7.076;2022-09-03T15:36:19;22.20;99.90
15113;DHT22;7657;50.140;7.076;2022-09-03T15:38:54;22.20;99.90
15113;DHT22;7657;50.140;7.076;2022-09-03T15:41:33;22.20;99.90
15113;DHT22;7657;50.140;7.076;2022-09-03T15:44:02;22.10;99.90
15113;DHT22;7657;50.140;7.076;2022-09-03T15:46:50;22.10;99.90
15113;DHT22;7657;50.140;7.076;2022-09-03T15:49:25;21.80;99.90
15113;DHT22;7657;50.140;7.076;2022-09-03T15:52:03;21.80;99.90
15113;DHT22;7657;50.140;7.076;2022-09-03T15:54:41;21.90;99.90
15113;DHT22;7657;50.140;7.076;2022-09-03T15:57:12;21.90;99.90
15113;DHT22;7657;50.140;7.076;2022-09-03T15:59:49;22.00;99.90
15113;DHT22;7657;50.140;7.076;2022-09-03T16:02:20;22.00;99.90
15113;DHT22;7657;50.140;7.076;2022-09-03T16:05:04;22.10;99.90
15113;DHT22;7657;50.140;7.076;2022-09-03T16:07:53;22.10;99.90
15113;DHT22;7657;50.140;7.076;2022-09-03T16:10:45;22.10;99.90
15113;DHT22;7657;50.140;7.076;2022-09-03T16:16:10;22.10;99.90
15113;DHT22;7657;50.140;7.076;2022-09-03T16:18:42;22.20;99.90
15113;DHT22;7657;50.140;7.076;2022-09-03T16:21:19;22.20;99.90
15113;DHT22;7657;50.140;7.076;2022-09-03T16:23:51;22.20;99.90
15113;DHT22;7657;50.140;7.076;2022-09-03T16:26:28;22.20;99.90
15113;DHT22;7657;50.140;7.076;2022-09-03T16:29:00;22.20;99.90
15113;DHT22;7657;50.140;7.076;2022-09-03T16:31:42;22.20;99.90